createdAt,value
2024-01-16T00:02:04.473Z,0.70
2024-01-16T00:04:32.402Z,0.60
2024-01-16T00:06:59.499Z,0.70
2024-01-16T00:09:26.560Z,0.70
2024-01-16T00:11:53.761Z,0.70
2024-01-16T00:14:20.810Z,0.70
2024-01-16T00:16:49.249Z,0.70
2024-01-16T00:19:16.620Z,0.70
2024-01-16T00:21:44.473Z,0.70
2024-01-16T00:24:11.520Z,0.70
2024-01-16T00:26:38.687Z,0.70
2024-01-16T00:29:05.790Z,0.70
2024-01-16T00:31:32.945Z,0.70
2024-01-16T00:34:00.043Z,0.70
2024-01-16T00:36:27.082Z,0.80
2024-01-16T00:38:54.197Z,0.80
2024-01-16T00:41:21.417Z,0.80
2024-01-16T00:43:48.367Z,0.80
2024-01-16T00:46:15.435Z,0.80
2024-01-16T00:48:42.739Z,0.70
2024-01-16T00:51:09.865Z,0.70
2024-01-16T00:53:41.616Z,0.70
2024-01-16T00:56:08.980Z,0.70
2024-01-16T00:58:36.539Z,0.70
2024-01-16T01:01:03.738Z,0.70
2024-01-16T01:03:30.746Z,0.70
2024-01-16T01:05:58.029Z,0.60
2024-01-16T01:08:25.231Z,0.60
2024-01-16T01:10:52.321Z,0.60
2024-01-16T01:13:19.404Z,0.60
2024-01-16T01:15:46.570Z,0.60
2024-01-16T01:18:13.744Z,0.60
2024-01-16T01:20:40.994Z,0.60
2024-01-16T01:23:08.596Z,0.60
2024-01-16T01:25:35.684Z,0.60
2024-01-16T01:28:02.770Z,0.60
2024-01-16T01:30:29.793Z,0.60
2024-01-16T01:32:57.040Z,0.60
2024-01-16T01:35:24.254Z,0.60
2024-01-16T01:37:51.273Z,0.60
2024-01-16T01:40:18.453Z,0.70
2024-01-16T01:42:45.864Z,0.70
2024-01-16T01:45:12.975Z,0.70
2024-01-16T01:47:44.155Z,0.60
2024-01-16T01:50:12.103Z,0.70
2024-01-16T01:52:42.426Z,0.70
2024-01-16T01:55:12.074Z,0.60
2024-01-16T01:57:39.268Z,0.70
2024-01-16T02:00:07.568Z,0.60
2024-01-16T02:02:35.349Z,0.60
2024-01-16T02:05:03.109Z,0.60
2024-01-16T02:07:30.585Z,0.50
2024-01-16T02:09:57.645Z,0.60
2024-01-16T02:12:25.904Z,0.60
2024-01-16T02:14:53.232Z,0.60
2024-01-16T02:17:20.248Z,0.60
2024-01-16T02:19:47.299Z,0.60
2024-01-16T02:22:17.963Z,0.60
2024-01-16T02:24:45.082Z,0.50
2024-01-16T02:27:12.323Z,0.60
2024-01-16T02:29:46.287Z,0.60
2024-01-16T02:32:14.533Z,0.60
2024-01-16T02:34:42.777Z,0.60
2024-01-16T02:37:10.028Z,0.60
2024-01-16T02:39:37.305Z,0.60
2024-01-16T02:42:04.331Z,0.60
2024-01-16T02:44:31.570Z,0.60
2024-01-16T02:46:58.733Z,0.50
2024-01-16T02:49:27.647Z,0.60
2024-01-16T02:51:56.012Z,0.50
2024-01-16T02:54:23.638Z,0.50
2024-01-16T02:56:51.248Z,0.50
2024-01-16T02:59:18.690Z,0.50
2024-01-16T03:01:45.820Z,0.40
2024-01-16T03:04:12.965Z,0.40
2024-01-16T03:06:40.226Z,0.50
2024-01-16T03:09:08.126Z,0.50
2024-01-16T03:11:35.331Z,0.50
2024-01-16T03:14:02.713Z,0.50
2024-01-16T03:16:30.153Z,0.50
2024-01-16T03:18:57.648Z,0.40
2024-01-16T03:21:24.739Z,0.50
2024-01-16T03:23:52.166Z,0.40
2024-01-16T03:26:19.383Z,0.40
2024-01-16T03:28:46.752Z,0.40
2024-01-16T03:31:16.945Z,0.50
2024-01-16T03:33:44.903Z,0.50
2024-01-16T03:36:14.764Z,0.40
2024-01-16T03:38:44.403Z,0.40
2024-01-16T03:41:14.742Z,0.40
2024-01-16T03:43:42.239Z,0.40
2024-01-16T03:46:11.581Z,0.40
2024-01-16T03:48:38.670Z,0.30
2024-01-16T03:51:05.870Z,0.40
2024-01-16T03:53:32.957Z,0.40
2024-01-16T03:56:00.007Z,0.30
2024-01-16T03:58:27.118Z,0.30
2024-01-16T04:00:54.775Z,0.30
2024-01-16T04:03:22.177Z,0.30
2024-01-16T04:05:49.777Z,0.30
2024-01-16T04:08:16.887Z,0.40
2024-01-16T04:10:44.028Z,0.30
2024-01-16T04:13:11.085Z,0.40
2024-01-16T04:15:41.255Z,0.30
2024-01-16T04:18:08.702Z,0.30
2024-01-16T04:20:35.799Z,0.30
2024-01-16T04:23:03.038Z,0.30
2024-01-16T04:25:30.051Z,0.30
2024-01-16T04:27:58.878Z,0.30
2024-01-16T04:30:27.357Z,0.30
2024-01-16T04:32:54.676Z,0.30
2024-01-16T04:35:23.498Z,0.30
2024-01-16T04:37:51.076Z,0.30
2024-01-16T04:40:18.144Z,0.30
2024-01-16T04:42:45.466Z,0.30
2024-01-16T04:45:12.507Z,0.40
2024-01-16T04:47:39.563Z,0.40
2024-01-16T04:50:06.905Z,0.40
2024-01-16T04:52:33.983Z,0.30
2024-01-16T04:55:00.974Z,0.40
2024-01-16T04:57:27.940Z,0.40
2024-01-16T04:59:55.130Z,0.50
2024-01-16T05:02:22.278Z,0.40
2024-01-16T05:04:51.046Z,0.40
2024-01-16T05:07:18.301Z,0.30
2024-01-16T05:09:46.475Z,0.40
2024-01-16T05:12:14.014Z,0.40
2024-01-16T05:14:40.984Z,0.40
2024-01-16T05:17:08.110Z,0.40
2024-01-16T05:30:34.191Z,0.40
2024-01-16T05:33:02.475Z,0.40
2024-01-16T05:35:29.814Z,0.40
2024-01-16T05:37:57.518Z,0.40
2024-01-16T05:40:24.487Z,0.40
2024-01-16T05:42:51.536Z,0.40
2024-01-16T05:45:18.999Z,0.40
2024-01-16T05:47:46.120Z,0.40
2024-01-16T05:50:13.429Z,0.40
2024-01-16T05:52:44.343Z,0.50
2024-01-16T05:55:12.574Z,0.50
2024-01-16T05:57:39.737Z,0.40
2024-01-16T06:00:07.248Z,0.40
2024-01-16T06:02:34.531Z,0.40
2024-01-16T06:05:01.624Z,0.40
2024-01-16T06:07:28.698Z,0.40
2024-01-16T06:09:55.677Z,0.50
2024-01-16T06:12:23.052Z,0.50
2024-01-16T06:17:34.330Z,0.50
2024-01-16T06:20:01.497Z,0.50
2024-01-16T06:22:28.610Z,0.50
2024-01-16T06:24:55.647Z,0.50
2024-01-16T06:27:22.690Z,0.50
2024-01-16T06:29:50.251Z,0.40
2024-01-16T06:35:02.369Z,0.40
2024-01-16T06:37:29.364Z,0.40
2024-01-16T06:39:56.354Z,0.40
2024-01-16T06:42:23.360Z,0.30
2024-01-16T06:44:50.456Z,0.30
2024-01-16T06:52:46.205Z,0.30
2024-01-16T07:03:26.972Z,0.30
2024-01-16T07:05:54.096Z,0.40
2024-01-16T07:08:21.947Z,0.40
2024-01-16T07:10:48.925Z,0.50
2024-01-16T07:13:16.124Z,0.50
2024-01-16T07:15:43.200Z,0.50
2024-01-16T07:18:10.538Z,0.50
2024-01-16T07:20:37.745Z,0.50
2024-01-16T07:23:05.528Z,0.50
2024-01-16T07:25:32.620Z,0.60
2024-01-16T07:30:43.876Z,0.50
2024-01-16T07:33:10.974Z,0.40
2024-01-16T07:35:39.062Z,0.40
2024-01-16T07:43:34.666Z,0.30
2024-01-16T07:46:01.568Z,0.30
2024-01-16T07:48:28.600Z,0.40
2024-01-16T07:50:55.599Z,0.50
2024-01-16T07:53:22.636Z,0.60
2024-01-16T07:55:50.326Z,0.70
2024-01-16T07:58:17.365Z,0.80
2024-01-16T08:00:44.374Z,0.80
2024-01-16T08:03:12.819Z,0.90
2024-01-16T08:05:40.215Z,1.00
2024-01-16T08:08:11.079Z,1.00
2024-01-16T08:16:09.460Z,1.10
2024-01-16T08:18:38.747Z,1.20
2024-01-16T08:23:51.747Z,1.50
2024-01-16T08:26:18.943Z,1.60
2024-01-16T08:28:46.277Z,1.70
2024-01-16T08:31:13.295Z,1.90
2024-01-16T08:33:46.311Z,2.00
2024-01-16T08:36:15.554Z,2.10
2024-01-16T08:38:42.691Z,2.20
2024-01-16T08:41:10.368Z,2.20
2024-01-16T08:43:37.369Z,2.20
2024-01-16T08:46:05.231Z,2.20
2024-01-16T08:48:33.114Z,2.30
2024-01-16T08:51:02.610Z,2.30
2024-01-16T08:53:29.822Z,2.40
2024-01-16T08:55:56.857Z,2.50
2024-01-16T08:58:23.783Z,2.60
2024-01-16T09:00:51.165Z,2.80
2024-01-16T09:03:19.718Z,2.80
2024-01-16T09:05:46.738Z,3.00
2024-01-16T09:13:42.540Z,3.20
2024-01-16T09:16:09.519Z,3.20
2024-01-16T09:18:36.645Z,3.00
2024-01-16T09:21:04.124Z,3.10
2024-01-16T09:23:31.425Z,3.00
2024-01-16T09:25:58.389Z,3.00
2024-01-16T09:31:10.702Z,3.20
2024-01-16T09:33:37.903Z,3.20
2024-01-16T09:36:05.250Z,3.30
2024-01-16T09:38:32.540Z,3.50
2024-01-16T09:41:00.595Z,3.60
2024-01-16T09:43:31.212Z,3.80
2024-01-16T09:46:03.435Z,3.90
2024-01-16T09:48:32.502Z,3.90
2024-01-16T09:50:59.767Z,4.20
2024-01-16T09:53:27.084Z,4.30
2024-01-16T09:55:55.987Z,4.40
2024-01-16T09:58:25.937Z,4.40
2024-01-16T10:00:53.992Z,4.50
2024-01-16T10:03:21.835Z,4.50
2024-01-16T10:05:50.084Z,4.40
2024-01-16T10:11:01.953Z,4.40
2024-01-16T10:16:13.121Z,4.40
2024-01-16T10:18:40.450Z,4.30
2024-01-16T10:21:21.021Z,4.30
2024-01-16T10:23:47.970Z,4.30
2024-01-16T10:26:19.730Z,4.20
2024-01-16T10:28:48.048Z,4.30
2024-01-16T10:31:18.369Z,4.40
2024-01-16T10:33:45.836Z,4.50
2024-01-16T10:36:22.133Z,4.60
2024-01-16T10:38:49.342Z,4.60
2024-01-16T10:41:18.564Z,4.60
2024-01-16T10:43:45.702Z,4.80
2024-01-16T10:46:16.709Z,4.90
2024-01-16T10:51:44.665Z,4.90
2024-01-16T10:54:15.299Z,5.10
2024-01-16T10:56:48.780Z,4.80
2024-01-16T10:59:34.968Z,4.80
2024-01-16T11:02:03.249Z,4.80
2024-01-16T11:04:30.508Z,4.90
2024-01-16T11:06:57.573Z,4.90
2024-01-16T11:09:25.186Z,4.90
2024-01-16T11:11:55.544Z,4.80
2024-01-16T11:14:24.657Z,5.00
2024-01-16T11:19:48.477Z,5.30
2024-01-16T11:22:23.725Z,5.40
2024-01-16T11:33:34.431Z,5.10
2024-01-16T11:36:02.087Z,5.10
2024-01-16T11:38:31.238Z,5.00
2024-01-16T11:40:58.292Z,5.10
2024-01-16T11:43:34.713Z,5.30
2024-01-16T11:46:02.652Z,5.30
2024-01-16T11:48:29.940Z,5.40
2024-01-16T11:50:57.180Z,5.30
2024-01-16T11:53:34.452Z,5.30
2024-01-16T11:56:01.666Z,5.40
2024-01-16T11:58:28.932Z,5.30
2024-01-16T12:00:58.688Z,5.50
2024-01-16T12:06:10.762Z,6.00
2024-01-16T12:08:38.673Z,6.10
2024-01-16T12:11:05.791Z,5.90
2024-01-16T12:13:32.798Z,6.00
2024-01-16T12:16:05.865Z,6.10
2024-01-16T12:26:46.336Z,5.40
2024-01-16T12:29:13.605Z,5.40
2024-01-16T12:31:40.582Z,5.30
2024-01-16T12:39:49.202Z,4.90
2024-01-16T12:42:16.302Z,4.70
2024-01-16T12:44:43.456Z,4.70
2024-01-16T12:47:10.711Z,4.80
2024-01-16T12:49:46.668Z,4.80
2024-01-16T12:55:06.537Z,4.60
2024-01-16T12:57:33.457Z,4.70
2024-01-16T13:00:05.076Z,4.80
2024-01-16T13:02:32.522Z,5.00
2024-01-16T13:05:00.793Z,4.90
2024-01-16T13:07:28.615Z,5.00
2024-01-16T13:10:10.428Z,4.90
2024-01-16T13:15:22.150Z,4.50
2024-01-16T13:17:49.273Z,4.50
2024-01-16T13:20:17.624Z,4.30
2024-01-16T13:22:47.654Z,4.10
2024-01-16T13:25:16.476Z,4.20
2024-01-16T13:27:43.550Z,4.10
2024-01-16T13:30:11.973Z,4.00
2024-01-16T13:32:39.475Z,4.00
2024-01-16T13:35:10.220Z,4.10
2024-01-16T13:40:25.329Z,4.20
2024-01-16T13:42:52.515Z,4.10
2024-01-16T13:45:19.795Z,4.10
2024-01-16T13:47:47.012Z,4.20
2024-01-16T13:50:14.232Z,4.30
2024-01-16T13:52:41.774Z,4.30
2024-01-16T13:55:09.209Z,4.50
2024-01-16T13:57:39.002Z,4.70
2024-01-16T14:00:12.468Z,4.60
2024-01-16T14:02:39.707Z,4.40
2024-01-16T14:05:07.291Z,4.40
2024-01-16T14:07:34.385Z,4.30
2024-01-16T14:10:02.603Z,4.20
2024-01-16T14:12:30.663Z,4.10
2024-01-16T14:14:57.710Z,4.00
2024-01-16T14:20:12.455Z,3.50
2024-01-16T14:22:39.981Z,3.40
2024-01-16T14:25:13.651Z,3.40
2024-01-16T14:27:41.600Z,3.30
2024-01-16T14:30:12.124Z,3.20
2024-01-16T14:32:39.936Z,3.10
2024-01-16T14:35:08.687Z,3.00
2024-01-16T14:37:36.384Z,2.80
2024-01-16T14:40:13.987Z,2.50
2024-01-16T14:45:26.331Z,2.40
2024-01-16T14:47:55.513Z,2.30
2024-01-16T14:50:23.322Z,2.20
2024-01-16T14:52:52.825Z,2.20
2024-01-16T14:55:24.118Z,2.00
2024-01-16T14:57:56.973Z,1.90
2024-01-16T15:00:28.448Z,1.90
2024-01-16T15:02:55.692Z,1.80
2024-01-16T15:10:53.536Z,1.70
2024-01-16T15:13:21.824Z,1.70
2024-01-16T15:15:48.857Z,1.70
2024-01-16T15:18:15.961Z,1.60
2024-01-16T15:20:42.947Z,1.50
2024-01-16T15:23:09.865Z,1.40
2024-01-16T15:31:09.015Z,1.20
2024-01-16T15:33:37.152Z,1.10
2024-01-16T15:36:04.803Z,1.10
2024-01-16T15:41:16.290Z,1.00
2024-01-16T15:49:12.832Z,0.70
2024-01-16T15:51:39.781Z,0.70
2024-01-16T15:54:07.277Z,0.50
2024-01-16T15:56:34.414Z,0.40
2024-01-16T16:01:47.191Z,0.40
2024-01-16T16:09:43.664Z,0.50
2024-01-16T16:12:10.690Z,0.50
2024-01-16T16:14:40.927Z,0.50
2024-01-16T16:17:09.953Z,0.50
2024-01-16T16:19:37.548Z,0.60
2024-01-16T16:24:49.995Z,0.60
2024-01-16T16:30:09.596Z,0.40
2024-01-16T16:38:05.587Z,0.30
2024-01-16T16:40:33.778Z,0.30
2024-01-16T16:43:01.378Z,0.20
2024-01-16T16:45:28.330Z,0.20
2024-01-16T16:47:55.483Z,0.20
2024-01-16T16:50:22.582Z,0.20
2024-01-16T16:55:33.776Z,0.40
2024-01-16T16:58:00.832Z,0.30
2024-01-16T17:00:28.183Z,0.30
2024-01-16T17:02:55.329Z,0.40
2024-01-16T17:05:22.625Z,0.40
2024-01-16T17:07:50.932Z,0.40
2024-01-16T17:10:17.953Z,0.40
2024-01-16T17:12:46.634Z,0.40
2024-01-16T17:15:13.726Z,0.30
2024-01-16T17:17:42.043Z,0.20
2024-01-16T17:22:58.307Z,0.20
2024-01-16T17:25:25.380Z,0.30
2024-01-16T17:27:52.561Z,0.30
2024-01-16T17:30:19.675Z,0.30
2024-01-16T17:32:46.906Z,0.40
2024-01-16T17:35:15.413Z,0.30
2024-01-16T17:40:27.042Z,0.30
2024-01-16T17:42:54.001Z,0.20
2024-01-16T17:45:20.985Z,0.20
2024-01-16T17:47:48.345Z,0.10
2024-01-16T17:50:15.418Z,0.00
2024-01-16T17:52:42.379Z,-0.10
2024-01-16T17:55:10.332Z,-0.10
2024-01-16T17:57:37.581Z,-0.10
2024-01-16T18:00:06.686Z,-0.10
2024-01-16T18:02:34.980Z,-0.10
2024-01-16T18:05:03.555Z,-0.10
2024-01-16T18:13:00.302Z,-0.20
2024-01-16T18:15:29.041Z,-0.30
2024-01-16T18:17:56.156Z,-0.30
2024-01-16T18:20:25.255Z,-0.30
2024-01-16T18:33:57.037Z,-0.30
2024-01-16T18:36:24.225Z,-0.30
2024-01-16T18:38:51.640Z,-0.40
2024-01-16T18:41:19.049Z,-0.40
2024-01-16T18:43:46.572Z,-0.50
2024-01-16T18:46:15.924Z,-0.60
2024-01-16T18:51:28.362Z,-0.70
2024-01-16T18:53:55.564Z,-0.80
2024-01-16T18:59:08.073Z,-0.90
2024-01-16T19:01:36.197Z,-1.00
2024-01-16T19:04:04.815Z,-1.00
2024-01-16T19:06:32.046Z,-1.00
2024-01-16T19:08:59.507Z,-1.10
2024-01-16T19:11:26.646Z,-1.10
2024-01-16T19:13:53.811Z,-1.20
2024-01-16T19:16:20.726Z,-1.30
2024-01-16T19:18:48.030Z,-1.40
2024-01-16T19:26:45.173Z,-1.90
2024-01-16T19:29:12.293Z,-2.10
2024-01-16T19:31:40.709Z,-2.20
2024-01-16T19:34:09.034Z,-2.30
2024-01-16T19:36:36.580Z,-2.40
2024-01-16T19:41:48.279Z,-2.50
2024-01-16T19:44:15.359Z,-2.60
2024-01-16T19:46:43.237Z,-2.60
2024-01-16T19:51:55.335Z,-2.60
2024-01-16T19:54:22.993Z,-2.70
2024-01-16T19:59:34.900Z,-2.80
2024-01-16T20:02:02.047Z,-2.90
2024-01-16T20:04:29.108Z,-3.00
2024-01-16T20:06:56.274Z,-3.00
2024-01-16T20:09:23.404Z,-3.10
2024-01-16T20:11:50.392Z,-3.20
2024-01-16T20:14:17.834Z,-3.20
2024-01-16T20:16:44.923Z,-3.40
2024-01-16T20:19:12.334Z,-3.40
2024-01-16T20:21:39.715Z,-3.40
2024-01-16T20:24:08.447Z,-3.50
2024-01-16T20:26:35.968Z,-3.50
2024-01-16T20:29:03.123Z,-3.50
2024-01-16T20:42:29.335Z,-3.80
2024-01-16T20:44:56.472Z,-3.80
2024-01-16T20:47:23.622Z,-3.90
2024-01-16T20:58:05.411Z,-4.00
2024-01-16T21:06:08.478Z,-4.00
2024-01-16T21:08:37.682Z,-3.90
2024-01-16T21:11:04.854Z,-3.90
2024-01-16T21:13:31.904Z,-3.90
2024-01-16T21:18:50.243Z,-4.10
2024-01-16T21:21:17.497Z,-4.20
2024-01-16T21:23:45.509Z,-4.30
2024-01-16T21:28:57.454Z,-4.20
2024-01-16T21:31:24.481Z,-4.30
2024-01-16T21:33:51.644Z,-4.30
2024-01-16T21:36:18.644Z,-4.30
2024-01-16T21:38:45.806Z,-4.40
2024-01-16T21:41:13.958Z,-4.50
2024-01-16T21:43:41.534Z,-4.50
2024-01-16T21:46:08.582Z,-4.60
2024-01-16T21:51:20.788Z,-4.70
2024-01-16T21:53:48.114Z,-4.60
2024-01-16T21:56:15.311Z,-4.60
2024-01-16T21:58:42.399Z,-4.50
2024-01-16T22:01:11.974Z,-4.60
2024-01-16T22:03:39.004Z,-4.60
2024-01-16T22:06:06.115Z,-4.70
2024-01-16T22:08:33.375Z,-4.80
2024-01-16T22:11:00.446Z,-4.70
2024-01-16T22:13:27.973Z,-4.70
2024-01-16T22:15:55.076Z,-4.70
2024-01-16T22:26:36.644Z,-5.10
2024-01-16T22:29:03.653Z,-5.10
2024-01-16T22:34:14.909Z,-5.20
2024-01-16T22:36:42.221Z,-5.20
2024-01-16T22:39:17.301Z,-5.20
2024-01-16T22:41:48.350Z,-5.30
2024-01-16T22:44:15.678Z,-5.20
2024-01-16T22:46:43.722Z,-5.20
2024-01-16T22:49:11.817Z,-5.20
2024-01-16T22:51:39.268Z,-5.20
2024-01-16T22:54:06.572Z,-5.30
2024-01-16T22:56:33.925Z,-5.30
2024-01-16T22:59:03.979Z,-5.40
2024-01-16T23:01:32.347Z,-5.30
2024-01-16T23:03:59.887Z,-5.30
2024-01-16T23:06:31.363Z,-5.40
2024-01-16T23:08:59.396Z,-5.50
2024-01-16T23:11:27.408Z,-5.50
2024-01-16T23:13:55.897Z,-5.50
2024-01-16T23:16:23.170Z,-5.60
2024-01-16T23:18:50.437Z,-5.70
2024-01-16T23:21:20.793Z,-5.70
2024-01-16T23:23:49.602Z,-5.70
2024-01-16T23:26:17.005Z,-5.70
2024-01-16T23:28:44.638Z,-5.70
2024-01-16T23:31:13.408Z,-5.70
2024-01-16T23:33:43.216Z,-5.70
2024-01-16T23:36:11.274Z,-5.80
2024-01-16T23:38:40.589Z,-5.80
2024-01-16T23:41:10.666Z,-5.80
2024-01-16T23:43:38.416Z,-5.80
2024-01-16T23:46:08.431Z,-5.80
2024-01-16T23:48:36.052Z,-5.80
2024-01-16T23:51:03.801Z,-5.80
2024-01-16T23:53:31.300Z,-5.90
2024-01-16T23:55:58.459Z,-5.90
2024-01-16T23:58:28.553Z,-5.80
